createdAt,value
2023-12-29T00:01:24.238Z,68.92
2023-12-29T00:03:33.789Z,69.00
2023-12-29T00:05:43.444Z,68.87
2023-12-29T00:07:52.926Z,69.10
2023-12-29T00:10:13.193Z,69.34
2023-12-29T00:12:22.755Z,69.04
2023-12-29T00:14:35.850Z,69.05
2023-12-29T00:16:48.352Z,69.17
2023-12-29T00:19:02.110Z,69.24
2023-12-29T00:21:11.618Z,69.17
2023-12-29T00:23:31.884Z,69.34
2023-12-29T00:25:42.376Z,69.24
2023-12-29T00:28:12.131Z,69.47
2023-12-29T00:30:28.019Z,69.41
2023-12-29T00:32:53.259Z,69.11
2023-12-29T00:35:02.939Z,68.93
2023-12-29T00:37:15.498Z,69.39
2023-12-29T00:39:40.404Z,69.22
2023-12-29T00:41:51.215Z,69.22
2023-12-29T00:44:20.544Z,69.24
2023-12-29T00:46:40.859Z,69.33
2023-12-29T00:48:50.651Z,69.25
2023-12-29T00:51:11.262Z,69.57
2023-12-29T00:53:23.971Z,69.40
2023-12-29T00:55:33.552Z,69.37
2023-12-29T00:57:43.174Z,69.25
2023-12-29T00:59:54.217Z,69.39
2023-12-29T01:02:03.827Z,69.28
2023-12-29T01:04:16.833Z,69.31
2023-12-29T01:06:28.122Z,69.29
2023-12-29T01:08:37.741Z,69.38
2023-12-29T01:10:47.188Z,69.31
2023-12-29T01:12:56.817Z,69.16
2023-12-29T01:15:06.960Z,69.30
2023-12-29T01:17:16.679Z,69.36
2023-12-29T01:19:25.872Z,69.24
2023-12-29T01:21:36.102Z,69.42
2023-12-29T01:23:45.798Z,69.24
2023-12-29T01:25:58.141Z,69.25
2023-12-29T01:28:08.279Z,69.49
2023-12-29T01:30:18.412Z,69.68
2023-12-29T01:32:28.270Z,69.37
2023-12-29T01:34:37.801Z,69.48
2023-12-29T01:36:47.319Z,69.48
2023-12-29T01:38:56.687Z,69.48
2023-12-29T01:41:06.125Z,69.58
2023-12-29T01:43:35.929Z,69.25
2023-12-29T01:45:55.252Z,69.55
2023-12-29T01:48:09.093Z,69.50
2023-12-29T01:50:25.322Z,69.42
2023-12-29T01:52:55.954Z,69.54
2023-12-29T01:55:05.891Z,69.48
2023-12-29T01:57:19.274Z,69.64
2023-12-29T01:59:33.786Z,69.43
2023-12-29T02:01:47.441Z,69.47
2023-12-29T02:04:00.854Z,69.44
2023-12-29T02:06:15.795Z,69.55
2023-12-29T02:08:36.875Z,69.52
2023-12-29T02:10:50.125Z,69.56
2023-12-29T02:13:10.904Z,69.54
2023-12-29T02:15:24.159Z,69.54
2023-12-29T02:17:47.973Z,69.42
2023-12-29T02:20:10.272Z,69.41
2023-12-29T02:22:20.288Z,69.46
2023-12-29T02:24:40.504Z,69.65
2023-12-29T02:27:00.768Z,69.40
2023-12-29T02:29:15.237Z,69.40
2023-12-29T02:31:27.480Z,69.12
2023-12-29T02:33:48.856Z,68.99
2023-12-29T02:36:04.667Z,69.21
2023-12-29T02:38:12.419Z,68.92
2023-12-29T02:40:26.178Z,68.85
2023-12-29T02:42:39.838Z,69.01
2023-12-29T02:44:52.348Z,69.00
2023-12-29T02:47:02.390Z,68.70
2023-12-29T02:49:14.605Z,68.66
2023-12-29T02:51:44.081Z,68.85
2023-12-29T02:53:54.449Z,68.94
2023-12-29T02:56:04.433Z,68.94
2023-12-29T02:58:14.309Z,68.67
2023-12-29T03:00:24.624Z,68.58
2023-12-29T03:02:39.983Z,68.99
2023-12-29T03:04:52.401Z,68.97
2023-12-29T03:07:02.486Z,68.98
2023-12-29T03:09:12.457Z,68.80
2023-12-29T03:11:25.481Z,68.87
2023-12-29T03:13:37.948Z,68.55
2023-12-29T03:15:50.618Z,68.92
2023-12-29T03:18:00.724Z,68.73
2023-12-29T03:20:15.252Z,68.61
2023-12-29T03:22:34.461Z,68.90
2023-12-29T03:24:48.525Z,68.73
2023-12-29T03:27:10.957Z,68.69
2023-12-29T03:29:29.743Z,68.83
2023-12-29T03:31:39.383Z,69.04
2023-12-29T03:33:48.950Z,68.68
2023-12-29T03:36:01.913Z,68.66
2023-12-29T03:38:15.794Z,68.57
2023-12-29T03:40:28.606Z,68.69
2023-12-29T03:42:58.500Z,68.82
2023-12-29T03:45:21.587Z,68.56
2023-12-29T03:47:37.654Z,68.70
2023-12-29T03:49:57.684Z,68.44
2023-12-29T03:52:10.597Z,68.55
2023-12-29T03:54:30.435Z,68.42
2023-12-29T03:56:40.297Z,68.39
2023-12-29T03:58:50.204Z,68.69
2023-12-29T04:01:03.339Z,68.47
2023-12-29T04:03:12.618Z,68.27
2023-12-29T04:05:22.416Z,68.71
2023-12-29T04:07:31.719Z,68.55
2023-12-29T04:09:41.574Z,68.22
2023-12-29T04:11:54.909Z,68.53
2023-12-29T04:14:10.079Z,68.60
2023-12-29T04:16:19.443Z,68.35
2023-12-29T04:18:32.383Z,68.54
2023-12-29T04:21:02.441Z,68.44
2023-12-29T04:23:31.761Z,68.44
2023-12-29T04:25:41.750Z,68.50
2023-12-29T04:27:51.631Z,68.23
2023-12-29T04:30:01.475Z,68.42
2023-12-29T04:32:21.211Z,68.20
2023-12-29T04:34:41.659Z,68.33
2023-12-29T04:37:11.071Z,68.43
2023-12-29T04:39:20.479Z,68.56
2023-12-29T04:41:33.120Z,68.48
2023-12-29T04:43:53.025Z,68.31
2023-12-29T04:46:03.614Z,68.31
2023-12-29T04:48:13.669Z,68.32
2023-12-29T04:50:26.497Z,68.32
2023-12-29T04:52:37.585Z,68.23
2023-12-29T04:54:47.392Z,68.48
2023-12-29T04:56:57.020Z,68.42
2023-12-29T04:59:26.760Z,68.15
2023-12-29T05:01:36.436Z,68.17
2023-12-29T05:03:46.101Z,68.26
2023-12-29T05:05:58.551Z,68.27
2023-12-29T05:08:19.218Z,68.28
2023-12-29T05:10:39.643Z,67.99
2023-12-29T05:12:58.375Z,68.09
2023-12-29T05:15:18.833Z,68.16
2023-12-29T05:17:48.593Z,68.17
2023-12-29T05:20:09.152Z,67.91
2023-12-29T05:22:21.832Z,68.31
2023-12-29T05:24:51.428Z,68.41
2023-12-29T05:27:04.625Z,68.33
2023-12-29T05:29:15.058Z,68.21
2023-12-29T05:31:24.385Z,68.63
2023-12-29T05:33:34.784Z,68.47
2023-12-29T05:35:44.444Z,68.15
2023-12-29T05:37:54.257Z,68.14
2023-12-29T05:40:17.878Z,68.50
2023-12-29T05:42:27.579Z,68.32
2023-12-29T05:44:38.596Z,68.34
2023-12-29T05:46:53.380Z,68.39
2023-12-29T05:49:03.065Z,68.15
2023-12-29T05:51:15.425Z,68.17
2023-12-29T05:53:35.121Z,68.24
2023-12-29T05:55:46.181Z,68.35
2023-12-29T05:58:16.448Z,68.27
2023-12-29T06:00:26.101Z,68.37
2023-12-29T06:02:46.997Z,68.11
2023-12-29T06:04:56.590Z,68.37
2023-12-29T06:07:09.915Z,68.29
2023-12-29T06:09:19.836Z,68.21
2023-12-29T06:11:32.821Z,67.79
2023-12-29T06:13:45.410Z,67.92
2023-12-29T06:15:58.517Z,67.96
2023-12-29T06:18:28.226Z,67.88
2023-12-29T06:20:47.362Z,68.13
2023-12-29T06:22:58.290Z,68.01
2023-12-29T06:25:14.052Z,68.02
2023-12-29T06:27:36.417Z,67.95
2023-12-29T06:29:49.983Z,67.94
2023-12-29T06:31:59.840Z,68.09
2023-12-29T06:34:09.968Z,67.98
2023-12-29T06:36:19.774Z,67.86
2023-12-29T06:38:32.240Z,67.74
2023-12-29T06:40:51.629Z,67.84
2023-12-29T06:43:21.136Z,67.85
2023-12-29T06:45:33.911Z,67.46
2023-12-29T06:48:03.963Z,67.69
2023-12-29T06:50:24.861Z,67.70
2023-12-29T06:52:35.680Z,67.63
2023-12-29T06:54:47.849Z,67.51
2023-12-29T06:57:07.745Z,67.51
2023-12-29T06:59:17.702Z,67.48
2023-12-29T07:01:27.090Z,67.58
2023-12-29T07:03:39.640Z,67.49
2023-12-29T07:05:49.654Z,67.56
2023-12-29T07:07:59.817Z,67.33
2023-12-29T07:10:15.114Z,67.38
2023-12-29T07:12:34.833Z,67.30
2023-12-29T07:14:47.715Z,67.38
2023-12-29T07:16:57.314Z,67.55
2023-12-29T07:19:10.227Z,67.42
2023-12-29T07:21:22.932Z,67.12
2023-12-29T07:23:35.321Z,67.28
2023-12-29T07:25:48.688Z,67.35
2023-12-29T07:28:09.762Z,67.14
2023-12-29T07:30:20.905Z,67.12
2023-12-29T07:32:39.602Z,67.25
2023-12-29T07:34:50.075Z,66.98
2023-12-29T07:37:20.698Z,66.90
2023-12-29T07:39:30.239Z,67.14
2023-12-29T07:41:44.548Z,67.32
2023-12-29T07:44:15.239Z,67.15
2023-12-29T07:46:30.313Z,67.05
2023-12-29T07:48:51.048Z,66.80
2023-12-29T07:51:07.157Z,67.01
2023-12-29T07:53:17.037Z,67.04
2023-12-29T07:55:26.367Z,66.67
2023-12-29T07:57:45.779Z,67.00
2023-12-29T07:59:58.373Z,66.91
2023-12-29T08:02:11.484Z,66.67
2023-12-29T08:04:20.767Z,66.61
2023-12-29T08:06:41.906Z,66.48
2023-12-29T08:08:54.212Z,66.78
2023-12-29T08:11:19.131Z,66.66
2023-12-29T08:13:28.582Z,66.58
2023-12-29T08:15:41.281Z,66.52
2023-12-29T08:17:53.846Z,66.44
2023-12-29T08:20:03.669Z,66.65
2023-12-29T08:22:13.747Z,66.46
2023-12-29T08:24:23.063Z,66.48
2023-12-29T08:26:32.439Z,66.46
2023-12-29T08:28:41.748Z,66.43
2023-12-29T08:30:51.428Z,66.32
2023-12-29T08:33:14.047Z,66.61
2023-12-29T08:35:23.342Z,66.40
2023-12-29T08:37:36.077Z,66.24
2023-12-29T08:39:45.504Z,65.80
2023-12-29T08:42:14.892Z,66.24
2023-12-29T08:44:24.545Z,65.82
2023-12-29T08:46:36.877Z,65.75
2023-12-29T08:48:46.463Z,65.62
2023-12-29T08:50:58.610Z,64.95
2023-12-29T08:53:11.048Z,65.19
2023-12-29T08:55:20.431Z,65.20
2023-12-29T08:57:34.074Z,64.99
2023-12-29T08:59:43.633Z,65.45
2023-12-29T09:01:53.705Z,65.33
2023-12-29T09:04:13.241Z,65.12
2023-12-29T09:06:22.594Z,65.40
2023-12-29T09:08:49.508Z,65.25
2023-12-29T09:11:09.238Z,65.20
2023-12-29T09:13:28.352Z,65.31
2023-12-29T09:15:37.741Z,65.15
2023-12-29T09:17:47.209Z,65.15
2023-12-29T09:20:00.747Z,64.80
2023-12-29T09:22:16.465Z,64.86
2023-12-29T09:24:26.318Z,64.58
2023-12-29T09:26:36.196Z,64.56
2023-12-29T09:28:46.705Z,64.11
2023-12-29T09:30:56.258Z,63.79
2023-12-29T09:33:06.477Z,64.27
2023-12-29T09:35:26.445Z,63.90
2023-12-29T09:37:35.917Z,63.67
2023-12-29T09:39:48.616Z,63.84
2023-12-29T09:42:02.091Z,63.67
2023-12-29T09:44:16.773Z,63.50
2023-12-29T09:46:32.956Z,63.70
2023-12-29T09:49:06.382Z,63.56
2023-12-29T09:51:16.791Z,63.47
2023-12-29T09:53:27.375Z,63.40
2023-12-29T09:55:38.682Z,63.06
2023-12-29T09:57:51.845Z,63.35
2023-12-29T10:00:18.218Z,63.18
2023-12-29T10:02:30.930Z,63.14
2023-12-29T10:04:40.401Z,62.69
2023-12-29T10:07:06.420Z,62.78
2023-12-29T10:09:40.149Z,62.89
2023-12-29T10:11:51.262Z,63.22
2023-12-29T10:14:20.196Z,62.51
2023-12-29T10:16:35.706Z,61.88
2023-12-29T10:19:16.700Z,61.16
2023-12-29T10:21:32.803Z,61.25
2023-12-29T10:23:46.327Z,60.49
2023-12-29T10:25:55.891Z,60.30
2023-12-29T10:28:05.615Z,60.39
2023-12-29T10:30:25.386Z,60.07
2023-12-29T10:32:43.889Z,60.32
2023-12-29T10:35:10.354Z,60.14
2023-12-29T10:37:31.184Z,60.45
2023-12-29T10:39:57.437Z,60.64
2023-12-29T10:42:15.123Z,60.25
2023-12-29T10:44:25.005Z,60.42
2023-12-29T10:46:54.888Z,60.06
2023-12-29T10:49:11.921Z,59.88
2023-12-29T10:51:31.832Z,60.35
2023-12-29T10:53:44.823Z,60.26
2023-12-29T10:56:03.268Z,59.67
2023-12-29T10:58:18.740Z,59.63
2023-12-29T11:00:48.612Z,59.43
2023-12-29T11:03:01.963Z,59.13
2023-12-29T11:05:12.665Z,58.76
2023-12-29T11:07:41.245Z,59.03
2023-12-29T11:09:50.839Z,59.19
2023-12-29T11:12:02.171Z,59.28
2023-12-29T11:14:15.574Z,59.44
2023-12-29T11:16:26.081Z,59.46
2023-12-29T11:18:36.618Z,59.82
2023-12-29T11:20:47.055Z,59.18
2023-12-29T11:23:00.135Z,59.16
2023-12-29T11:25:11.330Z,58.05
2023-12-29T11:27:21.885Z,58.03
2023-12-29T11:29:44.207Z,58.32
2023-12-29T11:31:55.283Z,58.21
2023-12-29T11:34:22.352Z,58.17
2023-12-29T11:36:37.008Z,58.44
2023-12-29T11:39:05.033Z,58.29
2023-12-29T11:41:25.320Z,57.77
2023-12-29T11:43:34.994Z,57.95
2023-12-29T11:49:28.182Z,57.72
2023-12-29T11:51:42.877Z,57.83
2023-12-29T11:53:52.256Z,58.20
2023-12-29T11:56:05.014Z,58.10
2023-12-29T11:58:31.157Z,58.03
2023-12-29T12:00:53.248Z,57.82
2023-12-29T12:03:03.828Z,57.85
2023-12-29T12:05:15.475Z,56.83
2023-12-29T12:08:02.369Z,57.39
2023-12-29T12:10:35.707Z,58.00
2023-12-29T12:12:56.418Z,57.78
2023-12-29T12:15:38.783Z,58.01
2023-12-29T12:18:11.159Z,57.56
2023-12-29T12:20:31.127Z,57.58
2023-12-29T12:23:04.655Z,57.65
2023-12-29T12:25:18.273Z,57.70
2023-12-29T12:27:34.309Z,57.61
2023-12-29T12:29:56.527Z,57.50
2023-12-29T12:32:06.146Z,57.24
2023-12-29T12:34:19.466Z,56.96
2023-12-29T12:36:29.586Z,57.31
2023-12-29T12:38:57.290Z,57.68
2023-12-29T12:41:27.715Z,57.69
2023-12-29T12:43:40.030Z,57.77
2023-12-29T12:45:51.157Z,57.47
2023-12-29T12:48:15.989Z,57.49
2023-12-29T12:50:25.719Z,57.42
2023-12-29T12:52:38.078Z,57.42
2023-12-29T12:54:51.265Z,57.49
2023-12-29T12:57:00.890Z,57.67
2023-12-29T12:59:10.842Z,57.76
2023-12-29T13:01:20.576Z,57.94
2023-12-29T13:03:30.529Z,57.66
2023-12-29T13:05:50.619Z,57.68
2023-12-29T13:08:04.806Z,57.47
2023-12-29T13:10:14.900Z,57.42
2023-12-29T13:12:25.527Z,57.09
2023-12-29T13:14:34.896Z,57.04
2023-12-29T13:17:12.111Z,57.38
2023-12-29T13:19:25.908Z,56.65
2023-12-29T13:21:36.320Z,56.63
2023-12-29T13:23:45.745Z,56.15
2023-12-29T13:26:05.098Z,56.27
2023-12-29T13:28:26.173Z,56.18
2023-12-29T13:30:56.155Z,56.45
2023-12-29T13:33:18.589Z,56.51
2023-12-29T13:35:51.428Z,56.57
2023-12-29T13:38:13.504Z,56.67
2023-12-29T13:40:46.796Z,56.84
2023-12-29T13:43:18.580Z,56.60
2023-12-29T13:45:29.072Z,56.64
2023-12-29T13:47:39.622Z,56.72
2023-12-29T13:49:53.240Z,56.28
2023-12-29T13:52:05.694Z,56.60
2023-12-29T13:54:15.526Z,56.45
2023-12-29T13:56:28.218Z,56.50
2023-12-29T13:58:56.107Z,56.50
2023-12-29T14:01:11.990Z,56.62
2023-12-29T14:03:35.224Z,56.60
2023-12-29T14:05:54.574Z,56.11
2023-12-29T14:08:11.452Z,56.29
2023-12-29T14:10:21.184Z,56.04
2023-12-29T14:12:30.628Z,55.31
2023-12-29T14:14:44.079Z,55.76
2023-12-29T14:17:13.370Z,55.69
2023-12-29T14:19:40.628Z,55.64
2023-12-29T14:21:57.156Z,55.96
2023-12-29T14:24:13.365Z,56.19
2023-12-29T14:26:22.721Z,56.26
2023-12-29T14:28:32.031Z,56.25
2023-12-29T14:31:07.692Z,56.27
2023-12-29T14:33:17.202Z,56.31
2023-12-29T14:35:26.801Z,56.30
2023-12-29T14:37:56.209Z,56.40
2023-12-29T14:40:13.311Z,56.35
2023-12-29T14:42:25.987Z,56.28
2023-12-29T14:44:36.356Z,56.05
2023-12-29T14:46:46.318Z,56.37
2023-12-29T14:48:57.330Z,56.55
2023-12-29T14:51:10.536Z,56.69
2023-12-29T14:53:19.735Z,56.90
2023-12-29T14:55:29.270Z,56.71
2023-12-29T14:57:49.154Z,56.74
2023-12-29T14:59:58.506Z,56.60
2023-12-29T15:02:09.173Z,56.38
2023-12-29T15:04:21.820Z,56.20
2023-12-29T15:06:31.404Z,56.13
2023-12-29T15:08:40.942Z,56.16
2023-12-29T15:10:50.341Z,56.35
2023-12-29T15:13:19.654Z,55.86
2023-12-29T15:15:32.308Z,56.04
2023-12-29T15:17:45.021Z,56.41
2023-12-29T15:19:54.319Z,56.39
2023-12-29T15:22:07.463Z,56.23
2023-12-29T15:24:19.807Z,56.53
2023-12-29T15:26:29.168Z,56.37
2023-12-29T15:28:38.504Z,56.20
2023-12-29T15:30:52.108Z,56.22
2023-12-29T15:33:11.510Z,56.04
2023-12-29T15:35:21.210Z,55.89
2023-12-29T15:37:30.801Z,56.02
2023-12-29T15:39:50.075Z,56.23
2023-12-29T15:41:59.489Z,56.09
2023-12-29T15:44:09.770Z,55.60
2023-12-29T15:46:23.704Z,55.77
2023-12-29T15:48:36.707Z,55.64
2023-12-29T15:50:46.211Z,55.70
2023-12-29T15:52:55.783Z,55.04
2023-12-29T15:55:14.999Z,55.11
2023-12-29T15:57:24.429Z,55.01
2023-12-29T15:59:33.837Z,54.39
2023-12-29T16:01:53.731Z,54.30
2023-12-29T16:04:04.067Z,54.35
2023-12-29T16:06:23.002Z,53.97
2023-12-29T16:08:33.077Z,54.33
2023-12-29T16:10:42.515Z,54.32
2023-12-29T16:13:11.935Z,54.09
2023-12-29T16:15:21.225Z,53.96
2023-12-29T16:17:33.568Z,54.16
2023-12-29T16:19:52.584Z,54.18
2023-12-29T16:22:02.113Z,54.43
2023-12-29T16:24:14.005Z,54.49
2023-12-29T16:26:38.386Z,54.36
2023-12-29T16:28:51.948Z,54.25
2023-12-29T16:31:12.359Z,54.49
2023-12-29T16:33:22.905Z,54.23
2023-12-29T16:35:33.358Z,54.56
2023-12-29T16:37:42.885Z,54.48
2023-12-29T16:40:13.534Z,54.49
2023-12-29T16:42:22.961Z,54.49
2023-12-29T16:44:43.251Z,54.70
2023-12-29T16:46:55.945Z,54.91
2023-12-29T16:49:05.724Z,54.87
2023-12-29T16:51:25.523Z,54.82
2023-12-29T16:53:48.825Z,54.79
2023-12-29T16:55:59.174Z,54.55
2023-12-29T16:58:21.351Z,54.91
2023-12-29T17:00:30.774Z,55.06
2023-12-29T17:02:43.855Z,55.18
2023-12-29T17:04:53.630Z,54.67
2023-12-29T17:07:03.576Z,54.90
2023-12-29T17:09:23.469Z,54.94
2023-12-29T17:11:33.096Z,54.62
2023-12-29T17:13:42.496Z,54.92
2023-12-29T17:16:02.271Z,54.89
2023-12-29T17:18:22.742Z,54.95
2023-12-29T17:20:42.552Z,54.72
2023-12-29T17:23:03.609Z,54.45
2023-12-29T17:25:39.516Z,54.78
2023-12-29T17:28:00.870Z,54.50
2023-12-29T17:30:18.058Z,54.41
2023-12-29T17:32:47.389Z,54.56
2023-12-29T17:34:56.901Z,54.39
2023-12-29T17:37:06.567Z,54.47
2023-12-29T17:39:15.939Z,54.47
2023-12-29T17:41:39.552Z,54.32
2023-12-29T17:44:09.985Z,54.33
2023-12-29T17:46:39.407Z,54.47
2023-12-29T17:48:54.539Z,54.29
2023-12-29T17:51:07.054Z,54.30
2023-12-29T17:53:18.593Z,54.72
2023-12-29T17:55:31.028Z,54.94
2023-12-29T17:57:50.560Z,54.98
2023-12-29T18:00:03.204Z,54.75
2023-12-29T18:02:14.117Z,54.76
2023-12-29T18:04:23.400Z,54.59
2023-12-29T18:06:33.372Z,54.79
2023-12-29T18:08:43.853Z,54.57
2023-12-29T18:10:53.409Z,54.74
2023-12-29T18:13:15.434Z,54.59
2023-12-29T18:15:44.319Z,54.74
2023-12-29T18:17:53.991Z,54.58
2023-12-29T18:20:03.636Z,54.55
2023-12-29T18:22:18.832Z,54.44
2023-12-29T18:24:41.206Z,54.46
2023-12-29T18:26:50.563Z,54.34
2023-12-29T18:28:59.812Z,53.89
2023-12-29T18:31:09.524Z,54.32
2023-12-29T18:33:18.974Z,53.85
2023-12-29T18:35:31.627Z,54.23
2023-12-29T18:37:46.344Z,54.10
2023-12-29T18:39:59.533Z,53.95
2023-12-29T18:42:09.789Z,54.20
2023-12-29T18:44:19.150Z,54.20
2023-12-29T18:46:29.499Z,54.22
2023-12-29T18:48:49.120Z,54.11
2023-12-29T18:51:19.512Z,53.80
2023-12-29T18:53:32.366Z,53.89
2023-12-29T18:56:02.121Z,53.98
2023-12-29T18:58:11.616Z,53.69
2023-12-29T19:00:32.917Z,54.00
2023-12-29T19:02:42.262Z,53.97
2023-12-29T19:04:51.673Z,53.96
2023-12-29T19:07:01.163Z,54.06
2023-12-29T19:09:12.482Z,54.09
2023-12-29T19:11:25.644Z,53.73
2023-12-29T19:13:42.418Z,53.88
2023-12-29T19:15:52.297Z,53.93
2023-12-29T19:18:06.263Z,53.86
2023-12-29T19:20:35.712Z,53.90
2023-12-29T19:22:44.900Z,53.65
2023-12-29T19:24:55.017Z,54.01
2023-12-29T19:27:09.020Z,53.90
2023-12-29T19:29:38.885Z,54.01
2023-12-29T19:31:58.018Z,54.23
2023-12-29T19:34:10.555Z,54.27
2023-12-29T19:36:21.051Z,54.35
2023-12-29T19:38:30.399Z,54.46
2023-12-29T19:40:59.713Z,54.34
2023-12-29T19:43:09.762Z,54.36
2023-12-29T19:45:19.567Z,54.26
2023-12-29T19:47:32.484Z,54.48
2023-12-29T19:49:46.866Z,54.54
2023-12-29T19:51:56.510Z,54.70
2023-12-29T19:54:09.302Z,54.64
2023-12-29T19:56:27.214Z,54.83
2023-12-29T19:58:39.873Z,55.00
2023-12-29T20:00:49.722Z,54.99
2023-12-29T20:02:59.650Z,55.24
2023-12-29T20:05:15.733Z,55.02
2023-12-29T20:07:28.510Z,55.11
2023-12-29T20:09:44.072Z,54.55
2023-12-29T20:11:53.712Z,54.88
2023-12-29T20:14:05.055Z,54.62
2023-12-29T20:16:24.710Z,54.62
2023-12-29T20:18:39.078Z,54.40
2023-12-29T20:21:08.851Z,54.35
2023-12-29T20:23:18.234Z,54.39
2023-12-29T20:25:27.649Z,54.20
2023-12-29T20:27:40.980Z,54.14
2023-12-29T20:30:00.607Z,53.73
2023-12-29T20:32:13.479Z,53.35
2023-12-29T20:34:34.723Z,53.14
2023-12-29T20:36:44.209Z,52.97
2023-12-29T20:38:57.075Z,52.82
2023-12-29T20:41:06.922Z,52.87
2023-12-29T20:43:16.347Z,52.56
2023-12-29T20:45:25.706Z,52.40
2023-12-29T20:47:38.756Z,52.63
2023-12-29T20:49:51.422Z,52.33
2023-12-29T20:52:00.717Z,52.24
2023-12-29T20:54:10.080Z,52.35
2023-12-29T20:56:19.615Z,52.19
2023-12-29T20:58:30.461Z,51.94
2023-12-29T21:00:49.488Z,52.05
2023-12-29T21:03:10.097Z,52.10
2023-12-29T21:05:23.479Z,52.31
2023-12-29T21:07:44.089Z,52.15
2023-12-29T21:09:54.732Z,52.21
2023-12-29T21:12:05.351Z,51.95
2023-12-29T21:14:17.736Z,52.17
2023-12-29T21:16:27.162Z,52.20
2023-12-29T21:18:48.438Z,52.26
2023-12-29T21:21:01.642Z,52.36
2023-12-29T21:23:10.997Z,52.39
2023-12-29T21:25:21.075Z,52.36
2023-12-29T21:27:32.447Z,52.52
2023-12-29T21:29:42.538Z,52.61
2023-12-29T21:31:55.582Z,52.46
2023-12-29T21:34:05.552Z,52.47
2023-12-29T21:36:25.623Z,52.52
2023-12-29T21:38:44.867Z,52.37
2023-12-29T21:40:54.515Z,52.67
2023-12-29T21:43:04.804Z,52.72
2023-12-29T21:45:28.024Z,52.59
2023-12-29T21:47:42.804Z,52.62
2023-12-29T21:49:52.482Z,52.71
2023-12-29T21:52:05.721Z,52.92
2023-12-29T21:54:18.162Z,52.92
2023-12-29T21:56:27.522Z,53.04
2023-12-29T21:58:39.439Z,52.83
2023-12-29T22:01:20.823Z,52.89
2023-12-29T22:03:33.507Z,53.06
2023-12-29T22:05:43.105Z,53.05
2023-12-29T22:08:02.683Z,53.13
2023-12-29T22:10:33.082Z,53.25
2023-12-29T22:12:42.624Z,53.52
2023-12-29T22:14:56.177Z,53.56
2023-12-29T22:17:25.729Z,53.42
2023-12-29T22:19:45.578Z,53.45
2023-12-29T22:21:55.352Z,53.69
2023-12-29T22:24:04.888Z,53.66
2023-12-29T22:26:35.960Z,53.83
2023-12-29T22:28:46.633Z,53.76
2023-12-29T22:30:57.388Z,53.95
2023-12-29T22:33:10.630Z,53.89
2023-12-29T22:35:20.828Z,54.21
2023-12-29T22:37:41.443Z,54.36
2023-12-29T22:39:51.308Z,54.22
2023-12-29T22:42:04.094Z,54.32
2023-12-29T22:44:14.653Z,54.43
2023-12-29T22:46:26.240Z,54.35
2023-12-29T22:48:35.968Z,54.50
2023-12-29T22:50:59.211Z,54.39
2023-12-29T22:53:09.152Z,54.63
2023-12-29T22:55:21.593Z,54.65
2023-12-29T22:57:45.255Z,54.43
2023-12-29T22:59:58.881Z,54.76
2023-12-29T23:02:11.658Z,54.63
2023-12-29T23:04:32.036Z,54.54
2023-12-29T23:06:51.298Z,54.80
2023-12-29T23:09:04.192Z,54.65
2023-12-29T23:11:16.556Z,54.44
2023-12-29T23:13:26.749Z,54.61
2023-12-29T23:15:48.485Z,54.67
2023-12-29T23:17:57.931Z,54.54
2023-12-29T23:20:17.645Z,54.68
2023-12-29T23:22:27.161Z,54.69
2023-12-29T23:24:46.712Z,54.80
2023-12-29T23:26:59.409Z,54.96
2023-12-29T23:29:17.708Z,55.23
2023-12-29T23:31:52.125Z,55.22
2023-12-29T23:34:01.372Z,55.41
2023-12-29T23:36:30.806Z,55.41
2023-12-29T23:38:54.076Z,55.56
2023-12-29T23:41:23.307Z,55.85
2023-12-29T23:43:54.841Z,55.75
2023-12-29T23:46:04.093Z,55.92
2023-12-29T23:48:14.595Z,56.24
2023-12-29T23:50:24.219Z,56.10
2023-12-29T23:52:36.973Z,56.35
2023-12-29T23:54:46.547Z,56.35
2023-12-29T23:57:16.040Z,56.19
2023-12-29T23:59:25.600Z,56.35
